Time;durP1;ratioP1;P1;durP2;ratioP2;P2;SDS_P1;SDS_P2;PMS_P1;PMS_P2;Temp;Humidity;BMP_temperature;BMP_pressure;BME280_temperature;BME280_humidity;BME280_pressure;Samples;Min_cycle;Max_cycle;Signal;HPM_P1;HPM_P2
2021/05/31 00:02:22;;;;;;;;;;;21.00;56.00;;;;;;5044002;28;19928;-68
2021/05/31 00:04:48;;;;;;;;;;;21.00;56.00;;;;;;5046659;28;19932;-67
2021/05/31 00:07:14;;;;;;;;;;;21.00;56.00;;;;;;5044863;28;19951;-68
2021/05/31 00:09:41;;;;;;;;;;;21.00;56.00;;;;;;5045970;28;19928;-68
2021/05/31 00:12:07;;;;;;;;;;;21.00;56.00;;;;;;5044720;28;19928;-69
2021/05/31 00:14:34;;;;;;;;;;;20.90;55.90;;;;;;5047612;28;19935;-68
2021/05/31 00:17:00;;;;;;;;;;;20.90;55.90;;;;;;5046028;28;19928;-69
2021/05/31 00:19:26;;;;;;;;;;;20.90;55.90;;;;;;5047131;28;19936;-69
2021/05/31 00:21:52;;;;;;;;;;;20.90;56.00;;;;;;5047067;28;20991;-67
2021/05/31 00:24:18;;;;;;;;;;;20.90;55.90;;;;;;5024813;28;20373;-67
2021/05/31 00:26:45;;;;;;;;;;;20.90;55.90;;;;;;5038981;28;20669;-68
2021/05/31 00:29:11;;;;;;;;;;;20.90;55.90;;;;;;5047851;28;19932;-68
2021/05/31 00:31:37;;;;;;;;;;;20.90;55.90;;;;;;5044407;28;19935;-68
2021/05/31 00:34:03;;;;;;;;;;;20.90;55.90;;;;;;5047650;28;19929;-68
2021/05/31 00:36:30;;;;;;;;;;;20.90;56.00;;;;;;5011258;28;20641;-68
2021/05/31 00:38:56;;;;;;;;;;;20.80;55.80;;;;;;5044877;28;20976;-68
2021/05/31 00:41:22;;;;;;;;;;;20.90;55.90;;;;;;5045137;28;20427;-68
2021/05/31 00:43:48;;;;;;;;;;;20.90;55.90;;;;;;5047416;28;19974;-67
2021/05/31 00:46:14;;;;;;;;;;;20.80;55.80;;;;;;5046095;28;20448;-67
2021/05/31 00:48:40;;;;;;;;;;;20.80;55.80;;;;;;5045589;28;20367;-68
2021/05/31 00:51:06;;;;;;;;;;;20.80;55.80;;;;;;5046069;28;19935;-68
2021/05/31 00:53:33;;;;;;;;;;;20.90;56.00;;;;;;5048772;28;20285;-68
2021/05/31 00:55:59;;;;;;;;;;;20.80;55.80;;;;;;5019665;28;19928;-68
2021/05/31 00:58:27;;;;;;;;;;;20.90;55.90;;;;;;5044182;28;20445;-67
2021/05/31 01:00:53;;;;;;;;;;;20.90;55.90;;;;;;5044673;28;19928;-68
2021/05/31 01:03:19;;;;;;;;;;;20.80;55.80;;;;;;5046309;28;19939;-68
2021/05/31 01:05:46;;;;;;;;;;;20.80;55.80;;;;;;5046877;28;19936;-68
2021/05/31 01:08:14;;;;;;;;;;;20.80;55.90;;;;;;5043494;28;19930;-68
2021/05/31 01:10:44;;;;;;;;;;;20.80;55.80;;;;;;5044751;28;19929;-68
2021/05/31 01:13:12;;;;;;;;;;;20.80;55.80;;;;;;5042399;28;19933;-68
2021/05/31 01:15:39;;;;;;;;;;;20.80;55.80;;;;;;5047397;28;19928;-67
2021/05/31 01:18:09;;;;;;;;;;;20.80;55.90;;;;;;5039941;28;19928;-68
2021/05/31 01:20:38;;;;;;;;;;;20.80;55.80;;;;;;5040003;28;19928;-68
2021/05/31 01:23:04;;;;;;;;;;;20.80;55.80;;;;;;5041464;28;19935;-68
2021/05/31 01:25:33;;;;;;;;;;;20.80;55.80;;;;;;5047491;28;19932;-68
2021/05/31 01:28:14;;;;;;;;;;;20.80;55.80;;;;;;5047663;28;19925;-70
2021/05/31 01:30:43;;;;;;;;;;;20.80;55.90;;;;;;5045887;28;19928;-68
2021/05/31 01:33:09;;;;;;;;;;;20.80;55.70;;;;;;5046214;28;19935;-68
2021/05/31 01:35:35;;;;;;;;;;;20.80;55.80;;;;;;5043322;28;19928;-69
2021/05/31 01:38:02;;;;;;;;;;;20.80;55.90;;;;;;5046668;28;20418;-68
2021/05/31 01:40:28;;;;;;;;;;;20.80;55.60;;;;;;5046036;28;20411;-67
2021/05/31 01:42:56;;;;;;;;;;;20.80;55.60;;;;;;5044263;28;19937;-68
2021/05/31 01:45:22;;;;;;;;;;;20.80;55.30;;;;;;5047880;28;19933;-68
2021/05/31 01:47:49;;;;;;;;;;;20.80;55.50;;;;;;5045013;28;19935;-68
2021/05/31 01:50:15;;;;;;;;;;;20.80;55.50;;;;;;5031341;28;19937;-68
2021/05/31 01:52:41;;;;;;;;;;;20.80;55.10;;;;;;5046919;28;20396;-68
2021/05/31 01:55:09;;;;;;;;;;;20.80;55.50;;;;;;5050857;28;19932;-68
2021/05/31 01:57:35;;;;;;;;;;;20.80;55.80;;;;;;5048294;28;19933;-68
2021/05/31 02:00:01;;;;;;;;;;;20.80;55.80;;;;;;5046032;28;20332;-68
2021/05/31 02:02:27;;;;;;;;;;;20.80;55.70;;;;;;5045873;28;19936;-68
2021/05/31 02:04:54;;;;;;;;;;;20.80;55.20;;;;;;5048131;28;19932;-69
2021/05/31 02:07:20;;;;;;;;;;;20.80;54.90;;;;;;5046857;28;19938;-68
2021/05/31 02:09:46;;;;;;;;;;;20.80;55.10;;;;;;5047164;28;20374;-67
2021/05/31 02:12:12;;;;;;;;;;;20.80;55.10;;;;;;5046802;28;19932;-67
2021/05/31 02:14:42;;;;;;;;;;;20.80;55.20;;;;;;5049615;28;19936;-68
2021/05/31 02:17:10;;;;;;;;;;;20.80;54.90;;;;;;5048396;28;19932;-68
2021/05/31 02:19:36;;;;;;;;;;;20.80;55.10;;;;;;5044553;28;20166;-69
2021/05/31 02:22:03;;;;;;;;;;;20.80;55.00;;;;;;5047725;28;20317;-68
2021/05/31 02:24:31;;;;;;;;;;;20.80;55.10;;;;;;5050629;28;19928;-69
2021/05/31 02:26:57;;;;;;;;;;;20.80;54.90;;;;;;5050095;28;19955;-68
2021/05/31 02:29:23;;;;;;;;;;;20.80;54.90;;;;;;5041251;28;19935;-68
2021/05/31 02:31:52;;;;;;;;;;;20.80;55.20;;;;;;5045984;28;19928;-69
2021/05/31 02:34:18;;;;;;;;;;;20.80;55.00;;;;;;5046024;28;19928;-68
2021/05/31 02:36:44;;;;;;;;;;;20.80;54.80;;;;;;5040577;28;19936;-68
2021/05/31 02:39:11;;;;;;;;;;;20.80;54.80;;;;;;5049776;28;19936;-68
2021/05/31 02:41:37;;;;;;;;;;;20.80;54.90;;;;;;5029941;28;19980;-68
2021/05/31 02:44:03;;;;;;;;;;;20.80;55.80;;;;;;5047272;28;20087;-68
2021/05/31 02:46:29;;;;;;;;;;;20.80;54.70;;;;;;5044780;28;19952;-68
2021/05/31 02:48:55;;;;;;;;;;;20.80;54.70;;;;;;5025023;28;19929;-68
2021/05/31 02:51:21;;;;;;;;;;;20.80;54.70;;;;;;5031959;28;19936;-68
2021/05/31 02:53:47;;;;;;;;;;;20.80;54.70;;;;;;5040034;28;19929;-68
2021/05/31 02:56:15;;;;;;;;;;;20.80;54.80;;;;;;5048631;28;20401;-69
2021/05/31 02:58:42;;;;;;;;;;;20.80;54.80;;;;;;5046688;28;19932;-68
2021/05/31 03:01:08;;;;;;;;;;;20.80;54.80;;;;;;5048183;28;19928;-68
2021/05/31 03:03:34;;;;;;;;;;;20.80;54.80;;;;;;5049177;28;19928;-68
2021/05/31 03:06:00;;;;;;;;;;;20.80;54.50;;;;;;5047811;28;19936;-68
2021/05/31 03:08:26;;;;;;;;;;;20.80;54.20;;;;;;5039541;28;19978;-68
2021/05/31 03:10:53;;;;;;;;;;;20.80;54.90;;;;;;5044301;28;20403;-68
2021/05/31 03:13:21;;;;;;;;;;;20.80;53.80;;;;;;5047882;28;19955;-68
2021/05/31 03:15:49;;;;;;;;;;;20.80;53.80;;;;;;5046959;28;19935;-68
2021/05/31 03:18:15;;;;;;;;;;;20.80;53.70;;;;;;5049842;28;20018;-70
2021/05/31 03:20:41;;;;;;;;;;;20.80;53.50;;;;;;5052397;28;19929;-69
2021/05/31 03:23:07;;;;;;;;;;;20.80;53.40;;;;;;5048368;28;19943;-67
2021/05/31 03:25:33;;;;;;;;;;;20.90;53.40;;;;;;5035468;28;19933;-67
2021/05/31 03:27:59;;;;;;;;;;;20.90;53.20;;;;;;5039989;28;19928;-68
2021/05/31 03:30:27;;;;;;;;;;;21.00;53.20;;;;;;5049244;28;19932;-68
2021/05/31 03:32:53;;;;;;;;;;;21.00;53.10;;;;;;5047374;28;19936;-68
2021/05/31 03:35:19;;;;;;;;;;;21.10;53.00;;;;;;5048925;28;19995;-70
2021/05/31 03:37:45;;;;;;;;;;;21.10;52.80;;;;;;5047397;28;19936;-68
2021/05/31 03:40:11;;;;;;;;;;;21.10;52.70;;;;;;5049218;28;19928;-68
2021/05/31 03:42:37;;;;;;;;;;;21.10;52.60;;;;;;5046297;28;19936;-69
2021/05/31 03:45:04;;;;;;;;;;;21.10;52.50;;;;;;5045543;28;20933;-68
2021/05/31 03:47:31;;;;;;;;;;;21.10;52.50;;;;;;5046200;28;19948;-68
2021/05/31 03:49:57;;;;;;;;;;;21.10;52.70;;;;;;5036377;28;19928;-68
2021/05/31 03:52:23;;;;;;;;;;;21.10;52.70;;;;;;5045794;28;20598;-68
2021/05/31 03:54:49;;;;;;;;;;;21.10;52.70;;;;;;5047465;28;19936;-68
2021/05/31 03:57:15;;;;;;;;;;;21.10;52.60;;;;;;5034308;28;20356;-68
2021/05/31 03:59:41;;;;;;;;;;;21.10;52.60;;;;;;5045269;28;19929;-68
2021/05/31 04:02:07;;;;;;;;;;;21.10;52.40;;;;;;5037267;28;19929;-68
2021/05/31 04:04:40;;;;;;;;;;;21.10;52.50;;;;;;5047747;28;19982;-68
2021/05/31 04:12:35;;;;;;;;;;;21.20;52.50;;;;;;5033683;28;19967;-68
2021/05/31 04:15:01;;;;;;;;;;;21.20;52.50;;;;;;5045528;28;19933;-70
2021/05/31 04:17:27;;;;;;;;;;;21.20;52.50;;;;;;5047557;28;19929;-68
2021/05/31 04:19:55;;;;;;;;;;;21.20;52.50;;;;;;5047154;28;19935;-69
2021/05/31 04:22:21;;;;;;;;;;;21.20;52.50;;;;;;5046335;28;19929;-68
2021/05/31 04:24:47;;;;;;;;;;;21.20;52.50;;;;;;5047250;28;20370;-68
2021/05/31 04:27:13;;;;;;;;;;;21.10;52.30;;;;;;5046255;28;19933;-68
2021/05/31 04:29:39;;;;;;;;;;;21.20;52.30;;;;;;5046278;28;19928;-69
2021/05/31 04:32:05;;;;;;;;;;;21.20;52.30;;;;;;5044810;28;20005;-68
2021/05/31 04:34:31;;;;;;;;;;;21.10;52.20;;;;;;5003999;28;19933;-69
2021/05/31 04:36:58;;;;;;;;;;;21.10;52.30;;;;;;5045540;28;19928;-68
2021/05/31 04:39:24;;;;;;;;;;;21.10;52.30;;;;;;5031553;28;19932;-69
2021/05/31 04:41:50;;;;;;;;;;;21.10;52.30;;;;;;5045253;28;19929;-68
2021/05/31 04:44:16;;;;;;;;;;;21.10;52.30;;;;;;5044538;28;20411;-68
2021/05/31 04:46:42;;;;;;;;;;;21.10;52.30;;;;;;5044039;28;19928;-67
2021/05/31 04:49:08;;;;;;;;;;;21.10;52.60;;;;;;5046161;28;20356;-68
2021/05/31 04:51:35;;;;;;;;;;;21.10;52.70;;;;;;5045462;28;19928;-67
2021/05/31 04:54:03;;;;;;;;;;;21.10;52.70;;;;;;5020313;28;20029;-67
2021/05/31 04:56:29;;;;;;;;;;;21.10;52.70;;;;;;5045628;28;19929;-67
2021/05/31 04:58:55;;;;;;;;;;;21.10;52.70;;;;;;5048734;28;19939;-68
2021/05/31 05:01:21;;;;;;;;;;;21.10;53.10;;;;;;5042981;28;19947;-66
2021/05/31 05:03:47;;;;;;;;;;;21.10;53.20;;;;;;5046789;28;19932;-68
2021/05/31 05:06:13;;;;;;;;;;;21.10;52.80;;;;;;5045611;28;19998;-68
2021/05/31 05:08:39;;;;;;;;;;;21.10;52.80;;;;;;5045975;28;20007;-68
2021/05/31 05:11:06;;;;;;;;;;;21.10;52.90;;;;;;5047852;28;19928;-68
2021/05/31 05:13:32;;;;;;;;;;;21.00;52.90;;;;;;5048540;28;19929;-67
2021/05/31 05:15:58;;;;;;;;;;;21.00;52.80;;;;;;5042862;28;19929;-68
2021/05/31 05:18:24;;;;;;;;;;;21.00;52.90;;;;;;5048543;28;19952;-68
2021/05/31 05:20:51;;;;;;;;;;;20.90;52.90;;;;;;5040621;28;20468;-67
2021/05/31 05:23:17;;;;;;;;;;;20.90;53.00;;;;;;5044496;28;19940;-68
2021/05/31 05:25:45;;;;;;;;;;;20.90;53.00;;;;;;5048280;28;19932;-68
2021/05/31 05:28:12;;;;;;;;;;;20.90;53.30;;;;;;5050915;28;19928;-68
2021/05/31 05:30:38;;;;;;;;;;;20.80;53.30;;;;;;5052992;28;19993;-68
2021/05/31 05:33:04;;;;;;;;;;;20.80;53.30;;;;;;5047524;28;20471;-66
2021/05/31 05:35:33;;;;;;;;;;;20.80;53.50;;;;;;5018839;28;19936;-67
2021/05/31 05:38:07;;;;;;;;;;;20.80;53.50;;;;;;5026302;28;20291;-68
2021/05/31 05:43:46;;;;;;;;;;;20.90;53.50;;;;;;5041143;28;21003;-68
2021/05/31 05:46:24;;;;;;;;;;;20.90;53.40;;;;;;5036147;28;19932;-66
2021/05/31 05:48:51;;;;;;;;;;;20.90;53.60;;;;;;5037457;28;19928;-68
2021/05/31 05:51:17;;;;;;;;;;;21.00;53.60;;;;;;5040333;28;19933;-67
2021/05/31 05:53:43;;;;;;;;;;;21.00;53.60;;;;;;5034292;28;20514;-69
2021/05/31 05:56:10;;;;;;;;;;;21.00;53.80;;;;;;5036641;28;19951;-67
2021/05/31 05:58:37;;;;;;;;;;;21.00;53.70;;;;;;5048376;28;19928;-67
2021/05/31 06:01:03;;;;;;;;;;;21.00;53.80;;;;;;5046819;28;20399;-67
2021/05/31 06:03:29;;;;;;;;;;;20.90;53.80;;;;;;5011434;28;19996;-68
2021/05/31 06:05:55;;;;;;;;;;;20.90;53.90;;;;;;5048793;28;20002;-67
2021/05/31 06:08:21;;;;;;;;;;;21.00;54.00;;;;;;5048876;28;19929;-67
2021/05/31 06:10:47;;;;;;;;;;;21.00;54.00;;;;;;5048338;28;19990;-67
2021/05/31 06:13:13;;;;;;;;;;;21.00;53.90;;;;;;5049019;28;19975;-67
2021/05/31 06:15:41;;;;;;;;;;;21.00;54.00;;;;;;5048672;28;20278;-67
2021/05/31 06:18:07;;;;;;;;;;;21.00;54.00;;;;;;5047603;28;19928;-68
2021/05/31 06:20:34;;;;;;;;;;;21.00;54.70;;;;;;5048979;28;20538;-67
2021/05/31 06:23:00;;;;;;;;;;;21.00;53.90;;;;;;5048052;28;19929;-67
2021/05/31 06:25:27;;;;;;;;;;;21.00;53.90;;;;;;5040513;28;19936;-67
2021/05/31 06:27:53;;;;;;;;;;;21.10;53.90;;;;;;5042983;28;19924;-68
2021/05/31 06:30:19;;;;;;;;;;;21.00;53.80;;;;;;5045731;28;19936;-67
2021/05/31 06:32:47;;;;;;;;;;;21.00;53.80;;;;;;5043174;28;19928;-68
2021/05/31 06:35:13;;;;;;;;;;;21.00;53.80;;;;;;5044532;28;19935;-67
2021/05/31 06:37:39;;;;;;;;;;;21.00;53.90;;;;;;5036798;28;19936;-67
2021/05/31 06:40:06;;;;;;;;;;;21.00;53.90;;;;;;5045400;28;19929;-68
2021/05/31 06:42:32;;;;;;;;;;;20.90;53.90;;;;;;5024251;28;19932;-68
2021/05/31 06:44:58;;;;;;;;;;;20.90;53.90;;;;;;5044660;28;20273;-67
2021/05/31 06:47:24;;;;;;;;;;;20.90;54.00;;;;;;5042155;28;19982;-68
2021/05/31 06:49:53;;;;;;;;;;;20.90;54.00;;;;;;5047435;28;19935;-68
2021/05/31 06:52:19;;;;;;;;;;;20.80;54.00;;;;;;5047675;28;20034;-68
2021/05/31 06:54:45;;;;;;;;;;;20.80;54.10;;;;;;5050977;28;20391;-67
2021/05/31 06:57:11;;;;;;;;;;;20.80;54.00;;;;;;5042642;28;19929;-68
2021/05/31 06:59:37;;;;;;;;;;;20.80;54.10;;;;;;5044222;28;19990;-68
2021/05/31 07:02:03;;;;;;;;;;;20.80;54.00;;;;;;5043042;28;20288;-68
2021/05/31 07:04:29;;;;;;;;;;;20.80;53.90;;;;;;5045567;28;19925;-68
2021/05/31 07:06:57;;;;;;;;;;;20.80;53.80;;;;;;5042794;28;24485;-68
2021/05/31 07:09:23;;;;;;;;;;;20.90;53.60;;;;;;5045149;28;19929;-68
2021/05/31 07:11:49;;;;;;;;;;;20.90;53.60;;;;;;5047936;28;19924;-68
2021/05/31 07:14:19;;;;;;;;;;;20.90;53.60;;;;;;5043607;28;19975;-69
2021/05/31 07:16:45;;;;;;;;;;;20.90;53.50;;;;;;5037498;28;19932;-68
2021/05/31 07:19:11;;;;;;;;;;;20.90;53.50;;;;;;5048398;28;20433;-68
2021/05/31 07:21:38;;;;;;;;;;;20.90;53.30;;;;;;5045257;28;19924;-68
2021/05/31 07:24:06;;;;;;;;;;;20.90;53.50;;;;;;5046270;28;19932;-69
2021/05/31 07:26:32;;;;;;;;;;;20.80;53.50;;;;;;5017663;28;19935;-68
2021/05/31 07:28:58;;;;;;;;;;;20.80;53.40;;;;;;5041470;28;19925;-68
2021/05/31 07:31:24;;;;;;;;;;;20.80;53.20;;;;;;5039417;28;19939;-68
2021/05/31 07:33:50;;;;;;;;;;;20.80;53.10;;;;;;5039839;28;19925;-68
2021/05/31 07:36:16;;;;;;;;;;;20.80;53.10;;;;;;5039585;28;19929;-68
2021/05/31 07:38:42;;;;;;;;;;;20.80;53.10;;;;;;5040907;28;20396;-67
2021/05/31 07:41:09;;;;;;;;;;;20.80;53.20;;;;;;5044787;28;19982;-67
2021/05/31 07:43:35;;;;;;;;;;;20.70;53.00;;;;;;5047500;28;20447;-68
2021/05/31 07:46:03;;;;;;;;;;;20.70;53.20;;;;;;5006715;28;19929;-68
2021/05/31 07:48:29;;;;;;;;;;;20.70;53.00;;;;;;5040190;28;19929;-68
2021/05/31 07:51:14;;;;;;;;;;;20.70;52.70;;;;;;5041208;28;19929;-68
2021/05/31 07:53:40;;;;;;;;;;;20.70;53.00;;;;;;5041976;28;19933;-68
2021/05/31 07:56:06;;;;;;;;;;;20.70;53.20;;;;;;5046606;28;19929;-68
2021/05/31 07:58:33;;;;;;;;;;;20.70;53.30;;;;;;5046574;28;19928;-68
2021/05/31 08:01:01;;;;;;;;;;;20.80;53.20;;;;;;5028210;28;19929;-68
2021/05/31 08:03:27;;;;;;;;;;;20.80;53.30;;;;;;5014604;28;20051;-68
2021/05/31 08:05:53;;;;;;;;;;;20.80;52.80;;;;;;5028809;28;19933;-68
2021/05/31 08:08:19;;;;;;;;;;;20.80;53.00;;;;;;5040861;28;20002;-68
2021/05/31 08:10:45;;;;;;;;;;;20.80;53.20;;;;;;5044358;28;19935;-67
2021/05/31 08:13:11;;;;;;;;;;;20.80;53.80;;;;;;5036141;28;20321;-68
2021/05/31 08:15:38;;;;;;;;;;;20.80;53.00;;;;;;5033796;28;19944;-67
2021/05/31 08:18:04;;;;;;;;;;;20.80;53.10;;;;;;5044562;28;19932;-68
2021/05/31 08:20:34;;;;;;;;;;;20.80;53.10;;;;;;5026709;28;19929;-68
2021/05/31 08:23:00;;;;;;;;;;;20.80;53.20;;;;;;5045088;28;20058;-67
2021/05/31 08:25:26;;;;;;;;;;;20.80;53.30;;;;;;5046781;28;19935;-67
2021/05/31 08:27:52;;;;;;;;;;;20.80;53.20;;;;;;5038046;28;19935;-67
2021/05/31 08:30:19;;;;;;;;;;;20.80;52.90;;;;;;5041621;28;19944;-68
2021/05/31 08:32:46;;;;;;;;;;;20.80;53.20;;;;;;5043301;28;19935;-68
2021/05/31 08:35:12;;;;;;;;;;;20.80;53.20;;;;;;5035811;28;19983;-70
2021/05/31 08:37:38;;;;;;;;;;;20.80;53.10;;;;;;5025593;28;19933;-68
2021/05/31 08:40:04;;;;;;;;;;;20.80;52.80;;;;;;5042745;28;19960;-67
2021/05/31 08:42:30;;;;;;;;;;;20.80;53.00;;;;;;5040836;28;19986;-68
2021/05/31 08:44:57;;;;;;;;;;;20.90;52.90;;;;;;5042419;28;19932;-67
2021/05/31 08:47:23;;;;;;;;;;;20.90;52.60;;;;;;5028394;28;19932;-68
2021/05/31 08:49:51;;;;;;;;;;;21.00;52.80;;;;;;5030261;28;19937;-69
2021/05/31 08:52:17;;;;;;;;;;;21.10;52.60;;;;;;5014650;28;22106;-68
2021/05/31 08:54:43;;;;;;;;;;;21.10;52.60;;;;;;5041363;28;19933;-69
2021/05/31 08:57:09;;;;;;;;;;;21.10;52.50;;;;;;5016809;28;19969;-68
2021/05/31 08:59:35;;;;;;;;;;;21.10;52.40;;;;;;5026181;28;19940;-68
2021/05/31 09:02:01;;;;;;;;;;;21.10;52.40;;;;;;5042866;28;19994;-68
2021/05/31 09:04:27;;;;;;;;;;;21.10;52.40;;;;;;5038072;28;20003;-68
2021/05/31 09:06:55;;;;;;;;;;;21.10;52.30;;;;;;5038649;28;19933;-67
2021/05/31 09:09:21;;;;;;;;;;;21.00;52.30;;;;;;5032279;28;19929;-67
2021/05/31 09:11:53;;;;;;;;;;;21.00;52.60;;;;;;5040996;28;19952;-68
2021/05/31 09:14:20;;;;;;;;;;;21.00;52.70;;;;;;5028723;28;19933;-67
2021/05/31 09:16:47;;;;;;;;;;;21.00;52.70;;;;;;5034076;28;20195;-67
2021/05/31 09:19:13;;;;;;;;;;;21.00;52.70;;;;;;5032479;28;19967;-68
2021/05/31 09:21:39;;;;;;;;;;;21.00;52.60;;;;;;5035626;28;19933;-67
2021/05/31 09:24:07;;;;;;;;;;;21.00;52.60;;;;;;5040696;28;19929;-67
2021/05/31 09:26:42;;;;;;;;;;;21.00;52.70;;;;;;5015665;28;19929;-67
2021/05/31 09:29:09;;;;;;;;;;;21.10;52.80;;;;;;5032931;28;19981;-67
2021/05/31 09:31:34;;;;;;;;;;;21.10;52.80;;;;;;5038188;28;20304;-67
2021/05/31 09:34:01;;;;;;;;;;;21.10;52.70;;;;;;5038029;28;19935;-67
2021/05/31 09:36:27;;;;;;;;;;;21.20;52.60;;;;;;5038684;28;19933;-67
2021/05/31 09:38:53;;;;;;;;;;;21.20;52.70;;;;;;5036539;28;19936;-67
2021/05/31 09:41:27;;;;;;;;;;;21.10;52.70;;;;;;5038473;28;20788;-68
2021/05/31 09:43:57;;;;;;;;;;;21.10;52.80;;;;;;5040619;28;19929;-67
2021/05/31 09:46:39;;;;;;;;;;;21.10;52.80;;;;;;5036131;28;21152;-67
2021/05/31 09:49:11;;;;;;;;;;;21.10;53.00;;;;;;5022029;28;19932;-67
2021/05/31 09:51:48;;;;;;;;;;;21.10;53.00;;;;;;5014127;28;19928;-68
2021/05/31 09:54:14;;;;;;;;;;;21.10;53.00;;;;;;5040979;28;20296;-67
2021/05/31 09:56:42;;;;;;;;;;;21.10;53.10;;;;;;5036269;28;20109;-66
2021/05/31 09:59:08;;;;;;;;;;;21.00;53.10;;;;;;5031610;28;19937;-67
2021/05/31 10:01:35;;;;;;;;;;;21.00;53.20;;;;;;5043627;28;20037;-66
2021/05/31 10:04:15;;;;;;;;;;;21.00;53.00;;;;;;5036632;28;19929;-69
2021/05/31 10:06:48;;;;;;;;;;;21.00;53.00;;;;;;5036565;28;19934;-67
2021/05/31 10:09:14;;;;;;;;;;;21.00;53.00;;;;;;5034740;28;20055;-67
2021/05/31 10:11:40;;;;;;;;;;;21.00;53.20;;;;;;5038539;28;19935;-67
2021/05/31 10:14:07;;;;;;;;;;;21.00;53.20;;;;;;5046195;28;19928;-68
2021/05/31 10:16:33;;;;;;;;;;;21.00;53.50;;;;;;5047775;28;19936;-68
2021/05/31 10:18:59;;;;;;;;;;;21.00;53.70;;;;;;5037085;28;19932;-67
2021/05/31 10:21:25;;;;;;;;;;;21.00;53.50;;;;;;5031052;28;19933;-68
2021/05/31 10:23:53;;;;;;;;;;;21.10;53.50;;;;;;5030583;28;19936;-67
2021/05/31 10:26:21;;;;;;;;;;;21.10;53.60;;;;;;5034099;28;20452;-67
2021/05/31 10:28:47;;;;;;;;;;;21.10;53.40;;;;;;5035494;28;19929;-68
2021/05/31 10:31:15;;;;;;;;;;;21.10;53.50;;;;;;5043588;28;19982;-68
2021/05/31 10:33:41;;;;;;;;;;;21.20;53.50;;;;;;5043090;28;19928;-67
2021/05/31 10:36:08;;;;;;;;;;;21.20;53.50;;;;;;5036843;28;19940;-67
2021/05/31 10:38:34;;;;;;;;;;;21.10;53.30;;;;;;5040011;28;20280;-66
2021/05/31 10:41:00;;;;;;;;;;;21.10;53.00;;;;;;5036834;28;19933;-66
2021/05/31 10:43:26;;;;;;;;;;;21.10;53.10;;;;;;5036215;28;19933;-67
2021/05/31 10:46:01;;;;;;;;;;;21.10;53.40;;;;;;5040123;28;20292;-67
2021/05/31 10:48:31;;;;;;;;;;;21.00;53.30;;;;;;5027256;28;19929;-68
2021/05/31 10:50:58;;;;;;;;;;;21.00;53.50;;;;;;5036828;28;19935;-67
2021/05/31 10:53:30;;;;;;;;;;;21.00;53.50;;;;;;5032270;28;19929;-67
2021/05/31 10:55:57;;;;;;;;;;;21.00;53.70;;;;;;5029611;28;20285;-68
2021/05/31 10:58:24;;;;;;;;;;;21.00;53.60;;;;;;5041583;28;19965;-68
2021/05/31 11:00:53;;;;;;;;;;;21.00;53.70;;;;;;5041596;28;20385;-67
2021/05/31 11:03:19;;;;;;;;;;;20.90;53.70;;;;;;5040716;28;20669;-67
2021/05/31 11:05:47;;;;;;;;;;;20.90;53.70;;;;;;5044202;28;19928;-67
2021/05/31 11:08:22;;;;;;;;;;;20.90;53.40;;;;;;5040636;28;19929;-67
2021/05/31 11:10:53;;;;;;;;;;;20.90;53.90;;;;;;5036126;28;20281;-67
2021/05/31 11:13:21;;;;;;;;;;;21.00;54.20;;;;;;5034198;28;22363;-67
2021/05/31 11:15:47;;;;;;;;;;;21.00;53.90;;;;;;5039780;28;19975;-67
2021/05/31 11:18:22;;;;;;;;;;;21.00;54.00;;;;;;5041496;28;19998;-68
2021/05/31 11:20:49;;;;;;;;;;;21.00;54.10;;;;;;5037217;28;20397;-68
2021/05/31 11:23:15;;;;;;;;;;;21.00;53.70;;;;;;5042877;28;20626;-67
2021/05/31 11:25:41;;;;;;;;;;;21.00;53.80;;;;;;5041590;28;19932;-67
2021/05/31 11:28:07;;;;;;;;;;;21.00;53.90;;;;;;5040578;28;19928;-68
2021/05/31 11:30:34;;;;;;;;;;;21.00;53.70;;;;;;5028632;28;19940;-68
2021/05/31 11:33:01;;;;;;;;;;;21.00;53.80;;;;;;5045404;28;19932;-68
2021/05/31 11:35:27;;;;;;;;;;;21.00;53.80;;;;;;5043746;28;19929;-69
2021/05/31 11:37:55;;;;;;;;;;;21.00;54.10;;;;;;5039745;28;19936;-67
2021/05/31 11:40:22;;;;;;;;;;;21.00;54.20;;;;;;5034590;28;19929;-68
2021/05/31 11:42:48;;;;;;;;;;;21.00;54.20;;;;;;5032094;28;19929;-68
2021/05/31 11:45:14;;;;;;;;;;;21.10;54.20;;;;;;5026457;28;20724;-67
2021/05/31 11:47:41;;;;;;;;;;;21.10;54.20;;;;;;5032336;28;19929;-67
2021/05/31 11:50:15;;;;;;;;;;;21.10;53.90;;;;;;5030398;28;20437;-68
2021/05/31 11:52:42;;;;;;;;;;;21.10;53.70;;;;;;5043494;28;19981;-68
2021/05/31 11:55:12;;;;;;;;;;;21.10;54.10;;;;;;5039647;28;19950;-68
2021/05/31 11:57:38;;;;;;;;;;;21.10;54.10;;;;;;5044218;28;19932;-68
2021/05/31 12:00:05;;;;;;;;;;;21.00;54.00;;;;;;5036787;28;19928;-68
2021/05/31 12:02:31;;;;;;;;;;;21.00;54.00;;;;;;5032912;28;19932;-68
2021/05/31 12:04:57;;;;;;;;;;;21.00;53.90;;;;;;5024945;28;20006;-68
2021/05/31 12:07:24;;;;;;;;;;;21.00;54.10;;;;;;5025936;28;19998;-68
2021/05/31 12:09:50;;;;;;;;;;;21.00;54.20;;;;;;5011205;28;19929;-68
2021/05/31 12:12:18;;;;;;;;;;;21.00;54.10;;;;;;5033372;28;19932;-67
2021/05/31 12:14:45;;;;;;;;;;;21.10;53.90;;;;;;5033467;28;19935;-67
2021/05/31 12:17:11;;;;;;;;;;;21.10;54.10;;;;;;5034741;28;19929;-67
2021/05/31 12:19:37;;;;;;;;;;;21.10;54.20;;;;;;5040096;28;19982;-67
2021/05/31 12:22:03;;;;;;;;;;;21.10;54.00;;;;;;5039021;28;19940;-67
2021/05/31 12:24:29;;;;;;;;;;;21.10;54.20;;;;;;5035012;28;19929;-69
2021/05/31 12:26:58;;;;;;;;;;;21.10;54.00;;;;;;5020022;28;19964;-68
2021/05/31 12:29:35;;;;;;;;;;;21.10;54.10;;;;;;5019981;28;20494;-68
2021/05/31 12:32:02;;;;;;;;;;;21.10;54.20;;;;;;5033400;28;19937;-67
2021/05/31 12:34:28;;;;;;;;;;;21.10;54.20;;;;;;5040325;28;19940;-68
2021/05/31 12:36:54;;;;;;;;;;;21.00;54.20;;;;;;5040943;28;19929;-68
2021/05/31 12:39:20;;;;;;;;;;;21.00;54.30;;;;;;5037566;28;19932;-69
2021/05/31 12:41:46;;;;;;;;;;;21.10;54.50;;;;;;5027263;28;19929;-68
2021/05/31 12:44:12;;;;;;;;;;;21.10;54.50;;;;;;5038920;28;19932;-68
2021/05/31 12:46:40;;;;;;;;;;;21.10;54.40;;;;;;5041236;28;19929;-68
2021/05/31 12:49:06;;;;;;;;;;;21.10;54.20;;;;;;5035542;28;19932;-69
2021/05/31 12:51:32;;;;;;;;;;;21.10;54.20;;;;;;5037990;28;20975;-67
2021/05/31 12:53:59;;;;;;;;;;;21.10;54.30;;;;;;5030831;28;19933;-66
2021/05/31 12:56:28;;;;;;;;;;;21.10;54.30;;;;;;5040043;28;20040;-68
2021/05/31 12:59:00;;;;;;;;;;;21.10;54.10;;;;;;5018892;28;20384;-69
2021/05/31 13:01:27;;;;;;;;;;;21.00;54.10;;;;;;5040234;28;19933;-68
2021/05/31 13:03:56;;;;;;;;;;;21.00;54.20;;;;;;5038980;28;19978;-67
2021/05/31 13:06:30;;;;;;;;;;;21.10;54.30;;;;;;5036104;28;19968;-68
2021/05/31 13:08:57;;;;;;;;;;;21.00;54.30;;;;;;5016260;28;19940;-68
2021/05/31 13:11:23;;;;;;;;;;;21.10;54.40;;;;;;5036957;28;19932;-68
2021/05/31 13:13:49;;;;;;;;;;;21.10;54.50;;;;;;5038594;28;19959;-67
2021/05/31 13:16:15;;;;;;;;;;;21.00;54.20;;;;;;5037615;28;20002;-67
2021/05/31 13:18:42;;;;;;;;;;;21.10;54.40;;;;;;5039037;28;19929;-68
2021/05/31 13:21:11;;;;;;;;;;;21.00;54.40;;;;;;5033884;28;20418;-68
2021/05/31 13:23:38;;;;;;;;;;;21.10;54.20;;;;;;5043017;28;19929;-68
2021/05/31 13:26:10;;;;;;;;;;;21.00;54.20;;;;;;5015149;28;19987;-68
2021/05/31 13:28:36;;;;;;;;;;;21.00;54.40;;;;;;5009513;28;20312;-69
2021/05/31 13:31:03;;;;;;;;;;;21.00;54.30;;;;;;5035710;28;19924;-68
2021/05/31 13:33:29;;;;;;;;;;;21.00;54.40;;;;;;5040342;28;19933;-68
2021/05/31 13:35:55;;;;;;;;;;;21.10;54.40;;;;;;5017381;28;19995;-68
2021/05/31 13:38:25;;;;;;;;;;;21.10;54.50;;;;;;5031729;28;19925;-68
2021/05/31 13:40:51;;;;;;;;;;;21.10;54.40;;;;;;5036748;28;19935;-67
2021/05/31 13:43:17;;;;;;;;;;;21.10;54.20;;;;;;5038235;28;19935;-68
2021/05/31 13:45:44;;;;;;;;;;;21.10;54.50;;;;;;5041614;28;20475;-69
2021/05/31 13:48:10;;;;;;;;;;;21.10;54.50;;;;;;5037982;28;19936;-69
2021/05/31 13:50:36;;;;;;;;;;;21.10;54.40;;;;;;5038430;28;19928;-68
2021/05/31 13:53:02;;;;;;;;;;;21.10;54.60;;;;;;5041765;28;20309;-68
2021/05/31 13:55:29;;;;;;;;;;;21.10;54.60;;;;;;5043157;28;19960;-70
2021/05/31 13:57:56;;;;;;;;;;;21.00;54.60;;;;;;5039736;28;19932;-68
2021/05/31 14:00:22;;;;;;;;;;;21.00;54.50;;;;;;5037273;28;19944;-68
2021/05/31 14:02:48;;;;;;;;;;;21.00;54.60;;;;;;5017285;28;19929;-68
2021/05/31 14:05:14;;;;;;;;;;;21.00;54.70;;;;;;5038908;28;19940;-67
2021/05/31 14:07:40;;;;;;;;;;;21.00;54.80;;;;;;5043762;28;19932;-67
2021/05/31 14:10:07;;;;;;;;;;;21.00;54.80;;;;;;5022219;28;19935;-67
2021/05/31 14:12:34;;;;;;;;;;;21.00;54.80;;;;;;5039726;28;20587;-68
2021/05/31 14:15:00;;;;;;;;;;;21.00;54.70;;;;;;5041153;28;19999;-68
2021/05/31 14:17:26;;;;;;;;;;;21.00;54.50;;;;;;5028189;28;19936;-68
2021/05/31 14:19:52;;;;;;;;;;;21.00;54.70;;;;;;5035544;28;19928;-69
2021/05/31 14:22:18;;;;;;;;;;;21.00;54.70;;;;;;5037377;28;19936;-68
2021/05/31 14:24:44;;;;;;;;;;;21.10;54.70;;;;;;5045363;28;19929;-68